Terminal Aerodrome Forecast
Issued by NWS

Home | Current Version | Previous Version | Text Only | Print | Product List | Glossary On
Versions: 1 2 3 4 5 6 7 8 9 10 11 12
000
FTUS45 KRIW 221100
TAFLND
TAF
KLND 221134Z 2212/2312 25006KT P6SM SCT100 BKN200
     FM221500 25007KT P6SM VCSH SCT080 BKN150
     FM221800 25010G20KT P6SM VCSH SCT050 BKN080
     FM230300 24007KT P6SM BKN080=

USA.gov is the U.S. government's official web portal to all federal, state and local government web resources and services.